East Connersville, Indiana
Current Conditions -  °F | °C
As of 6:35 PM on Monday 20 Oct 2014 (Local Time) from KI67 Reporting Station
Broken Clouds Broken Clouds  
Wind Chill: 63°   Ceiling: 7000
Heat Index: 63°   Visibility: 10mi
Dew Point: 50°   Wind: 5mph
Humidity: 63%   Direction: 230°SW
Pressure: 29.86"   Gusts: NA
Location:  39.645°N, 85.1744°W
Report Text: KI67 202235Z AUTO 23004KT 10SM SCT050 BKN070 17/10 A2986 RMK AO1
Loading
Personal Weather Stations






























Interactive Weather Map New forecast layout! Learn more

10-Day Weather Forecast

Advertisements
Track Severe Weather on mobile